Time;durP1;ratioP1;P1;durP2;ratioP2;P2;SDS_P1;SDS_P2;PMS_P1;PMS_P2;Temp;Humidity;BMP_temperature;BMP_pressure;BME280_temperature;BME280_humidity;BME280_pressure;Samples;Min_cycle;Max_cycle;Signal;HPM_P1;HPM_P2
2023/10/05 00:02:20;;;;;;;9.48;1.75;;;;;;;-143.29;100.00;62188.47;5034082;28;20032;-90
2023/10/05 00:04:42;;;;;;;8.45;1.88;;;;;;;-143.29;100.00;62188.47;5053848;28;20052;-89
2023/10/05 00:07:26;;;;;;;6.13;1.38;;;;;;;-143.29;100.00;62188.47;5055030;28;20387;-89
2023/10/05 00:09:52;;;;;;;8.80;1.42;;;;;;;-143.29;100.00;62188.47;5054331;28;20086;-88
2023/10/05 00:12:22;;;;;;;4.20;1.00;;;;;;;-143.29;100.00;62188.47;5055943;28;20017;-89
2023/10/05 00:14:55;;;;;;;4.53;1.15;;;;;;;-143.29;100.00;62188.47;5054315;28;20032;-88
2023/10/05 00:17:21;;;;;;;4.90;1.60;;;;;;;-143.29;100.00;62188.47;5054717;28;20029;-89
2023/10/05 00:19:47;;;;;;;5.72;1.48;;;;;;;-143.29;100.00;62188.47;5054652;28;20028;-89
2023/10/05 00:22:13;;;;;;;7.70;1.15;;;;;;;-143.29;100.00;62188.47;5066385;28;20528;-88
2023/10/05 00:24:40;;;;;;;7.45;1.45;;;;;;;-143.29;100.00;62188.47;5063251;28;20040;-88
2023/10/05 00:27:09;;;;;;;5.32;1.17;;;;;;;-143.29;100.00;62188.47;5058534;28;20382;-89
2023/10/05 00:29:41;;;;;;;9.00;2.50;;;;;;;-143.29;100.00;62188.47;5072702;28;20056;-88
2023/10/05 00:32:20;;;;;;;6.93;1.33;;;;;;;-143.29;100.00;62188.47;5054483;28;20031;-89
2023/10/05 00:34:55;;;;;;;5.85;2.22;;;;;;;-143.29;100.00;62188.47;5054078;28;20037;-88
2023/10/05 00:37:22;;;;;;;5.43;1.25;;;;;;;-143.29;100.00;62188.47;5052359;28;20029;-88
2023/10/05 00:39:49;;;;;;;9.90;1.67;;;;;;;-143.29;100.00;62188.47;5053496;28;20017;-88
2023/10/05 00:42:16;;;;;;;11.15;1.83;;;;;;;-143.29;100.00;62188.47;5036378;28;20391;-88
2023/10/05 00:44:42;;;;;;;9.00;1.33;;;;;;;-143.29;100.00;62188.47;5054342;28;20478;-89
2023/10/05 00:47:09;;;;;;;9.35;1.63;;;;;;;-143.29;100.00;62188.47;5057028;28;20021;-88
2023/10/05 00:54:40;;;;;;;7.72;1.70;;;;;;;-143.29;100.00;62188.47;5053642;28;20036;-88
2023/10/05 00:57:13;;;;;;;9.85;1.52;;;;;;;-143.29;100.00;62188.47;5056693;28;20028;-88
2023/10/05 00:59:40;;;;;;;6.00;1.77;;;;;;;-143.29;100.00;62188.47;5070658;28;20383;-88
2023/10/05 01:02:14;;;;;;;6.05;1.20;;;;;;;-143.29;100.00;62188.47;5053617;28;20024;-89
2023/10/05 01:07:28;;;;;;;7.32;1.10;;;;;;;-143.29;100.00;62188.47;5052697;28;20068;-88
2023/10/05 01:14:59;;;;;;;8.18;1.63;;;;;;;-143.29;100.00;62188.47;5054063;28;20036;-88
2023/10/05 01:17:27;;;;;;;6.47;1.67;;;;;;;-143.29;100.00;62188.47;5058484;28;20016;-88
2023/10/05 01:19:58;;;;;;;8.00;2.28;;;;;;;-143.29;100.00;62188.47;5051783;28;20029;-88
2023/10/05 01:22:32;;;;;;;6.43;1.67;;;;;;;-143.29;100.00;62188.47;5050064;28;20025;-88
2023/10/05 01:24:59;;;;;;;5.25;1.33;;;;;;;-143.29;100.00;62188.47;5061387;28;20032;-88
2023/10/05 01:27:29;;;;;;;11.02;1.80;;;;;;;-143.29;100.00;62188.47;5073628;28;20020;-89
2023/10/05 01:29:55;;;;;;;9.02;1.58;;;;;;;-143.29;100.00;62188.47;5073581;28;20021;-88
2023/10/05 01:32:20;;;;;;;5.65;1.30;;;;;;;-143.29;100.00;62188.47;5053853;28;20035;-88
2023/10/05 01:34:49;;;;;;;9.25;1.92;;;;;;;-143.29;100.00;62188.47;5073308;28;20094;-88
2023/10/05 01:37:17;;;;;;;7.70;1.42;;;;;;;-143.29;100.00;62188.47;5060315;28;20451;-88
2023/10/05 01:39:44;;;;;;;9.50;1.50;;;;;;;-143.29;100.00;62188.47;5053530;28;20107;-88
2023/10/05 01:42:13;;;;;;;7.50;1.40;;;;;;;-143.29;100.00;62188.47;5058209;28;20103;-89
2023/10/05 01:44:46;;;;;;;6.50;1.60;;;;;;;-143.29;100.00;62188.47;5073382;28;20039;-88
2023/10/05 01:47:15;;;;;;;6.85;1.23;;;;;;;-143.29;100.00;62188.47;5073328;28;20490;-88
2023/10/05 01:49:41;;;;;;;6.97;1.38;;;;;;;-143.29;100.00;62188.47;5072310;28;20020;-89
2023/10/05 01:52:07;;;;;;;2.80;1.08;;;;;;;-143.29;100.00;62188.47;5071760;28;20025;-88
2023/10/05 01:54:34;;;;;;;4.80;1.38;;;;;;;-143.29;100.00;62188.47;5055051;28;20038;-88
2023/10/05 01:57:03;;;;;;;12.65;1.50;;;;;;;-143.29;100.00;62188.47;5072912;28;20027;-89
2023/10/05 01:59:33;;;;;;;5.10;1.15;;;;;;;-143.29;100.00;62188.47;5072965;28;20032;-88
2023/10/05 02:02:01;;;;;;;8.10;2.45;;;;;;;-143.29;100.00;62188.47;5053282;28;20080;-88
2023/10/05 02:04:29;;;;;;;4.22;1.08;;;;;;;-143.29;100.00;62188.47;5041253;28;20037;-89
2023/10/05 02:06:54;;;;;;;7.88;1.40;;;;;;;-143.29;100.00;62188.47;5032780;28;20484;-88
2023/10/05 02:09:20;;;;;;;5.35;1.13;;;;;;;-143.29;100.00;62188.47;5032729;28;20033;-88
2023/10/05 02:11:49;;;;;;;6.10;2.45;;;;;;;-143.29;100.00;62188.47;5044885;28;20024;-89
2023/10/05 02:14:16;;;;;;;6.50;1.52;;;;;;;-143.29;100.00;62188.47;5044317;28;20036;-88
2023/10/05 02:16:42;;;;;;;8.18;1.63;;;;;;;-143.29;100.00;62188.47;5050700;28;20085;-88
2023/10/05 02:19:08;;;;;;;5.47;1.17;;;;;;;-143.29;100.00;62188.47;5052382;28;20052;-89
2023/10/05 02:21:37;;;;;;;5.88;1.17;;;;;;;-143.29;100.00;62188.47;5051748;28;20048;-88
2023/10/05 02:24:36;;;;;;;6.05;1.30;;;;;;;-143.29;100.00;62188.47;5032396;28;20491;-89
2023/10/05 02:29:20;;;;;;;6.35;1.27;;;;;;;-143.29;100.00;62188.47;5032868;28;20017;-89
2023/10/05 02:32:21;;;;;;;7.78;2.10;;;;;;;-143.29;100.00;62188.47;5032288;28;20021;-88
2023/10/05 02:37:22;;;;;;;7.00;1.48;;;;;;;-143.29;100.00;62188.47;5052115;28;20110;-88
2023/10/05 02:39:48;;;;;;;8.55;2.15;;;;;;;-143.29;100.00;62188.47;5052139;28;20029;-88
2023/10/05 02:42:21;;;;;;;6.50;1.40;;;;;;;-143.29;100.00;62188.47;5037125;28;20375;-89
2023/10/05 02:44:46;;;;;;;7.95;1.90;;;;;;;-143.29;100.00;62188.47;5071895;28;20021;-89
2023/10/05 02:47:22;;;;;;;6.28;1.25;;;;;;;-143.29;100.00;62188.47;5054212;28;20036;-88
2023/10/05 02:49:48;;;;;;;2.40;1.23;;;;;;;-143.29;100.00;62188.47;5051981;28;20021;-89
2023/10/05 02:52:15;;;;;;;5.82;1.23;;;;;;;-143.29;100.00;62188.47;5055602;28;20035;-88
2023/10/05 02:54:41;;;;;;;5.30;1.30;;;;;;;-143.29;100.00;62188.47;5071771;28;20108;-89
2023/10/05 02:57:14;;;;;;;6.88;1.60;;;;;;;-143.29;100.00;62188.47;5071805;28;20163;-88
2023/10/05 02:59:40;;;;;;;10.15;2.97;;;;;;;-143.29;100.00;62188.47;5071946;28;20043;-88
2023/10/05 03:02:11;;;;;;;5.70;1.23;;;;;;;-143.29;100.00;62188.47;5069996;28;20031;-88
2023/10/05 03:04:47;;;;;;;6.72;1.70;;;;;;;-143.29;100.00;62188.47;5071788;28;20027;-88
2023/10/05 03:07:17;;;;;;;8.38;1.42;;;;;;;-143.29;100.00;62188.47;5071672;28;20048;-88
2023/10/05 03:09:47;;;;;;;6.78;1.42;;;;;;;-143.29;100.00;62188.47;5071634;28;20028;-89
2023/10/05 03:12:13;;;;;;;5.22;1.05;;;;;;;-143.29;100.00;62188.47;5052034;28;20070;-89
2023/10/05 03:14:44;;;;;;;5.18;1.20;;;;;;;-143.29;100.00;62188.47;5053864;28;20035;-89
2023/10/05 03:17:16;;;;;;;9.38;1.88;;;;;;;-143.29;100.00;62188.47;5050007;28;20498;-89
2023/10/05 03:19:41;;;;;;;8.85;2.72;;;;;;;-143.29;100.00;62188.47;5066347;28;20032;-89
2023/10/05 03:22:12;;;;;;;8.77;1.77;;;;;;;-143.29;100.00;62188.47;5066253;28;20031;-88
2023/10/05 03:24:38;;;;;;;9.03;1.80;;;;;;;-143.29;100.00;62188.47;5058212;28;20064;-88
2023/10/05 03:27:04;;;;;;;4.78;1.40;;;;;;;-143.29;100.00;62188.47;5071626;28;20070;-88
2023/10/05 03:29:30;;;;;;;6.18;1.27;;;;;;;-143.29;100.00;62188.47;5071526;28;20029;-88
2023/10/05 03:32:13;;;;;;;5.70;1.40;;;;;;;-143.29;100.00;62188.47;5069978;28;20100;-89
2023/10/05 03:34:42;;;;;;;4.65;1.00;;;;;;;-143.29;100.00;62188.47;5071313;28;20028;-89
2023/10/05 03:37:13;;;;;;;5.25;1.15;;;;;;;-143.29;100.00;62188.47;5071684;28;20024;-89
2023/10/05 03:40:02;;;;;;;3.17;1.08;;;;;;;-143.29;100.00;62188.47;5071356;28;20067;-89
2023/10/05 03:42:27;;;;;;;10.57;1.80;;;;;;;-143.29;100.00;62188.47;5069775;28;20025;-89
2023/10/05 03:45:09;;;;;;;5.53;1.10;;;;;;;-143.29;100.00;62188.47;5071653;28;20109;-89
2023/10/05 03:47:39;;;;;;;3.20;0.90;;;;;;;-143.29;100.00;62188.47;5071436;28;20024;-89
2023/10/05 03:50:06;;;;;;;5.40;1.25;;;;;;;-143.29;100.00;62188.47;5071394;28;20021;-89
2023/10/05 03:52:32;;;;;;;2.55;1.08;;;;;;;-143.29;100.00;62188.47;5069705;28;20479;-89
2023/10/05 03:55:11;;;;;;;9.75;2.10;;;;;;;-143.29;100.00;62188.47;5071356;28;20036;-89
2023/10/05 03:57:43;;;;;;;6.00;1.45;;;;;;;-143.29;100.00;62188.47;5071447;28;20052;-89
2023/10/05 04:02:47;;;;;;;5.60;1.08;;;;;;;-143.29;100.00;62188.47;5069929;28;20033;-89
2023/10/05 04:05:17;;;;;;;4.35;1.23;;;;;;;-143.29;100.00;62188.47;5071359;28;20019;-89
2023/10/05 04:07:43;;;;;;;6.93;1.42;;;;;;;-143.29;100.00;62188.47;5071387;28;20025;-89
2023/10/05 04:10:13;;;;;;;12.07;1.63;;;;;;;-143.29;100.00;62188.47;5071106;28;20073;-89
2023/10/05 04:12:40;;;;;;;9.75;1.55;;;;;;;-143.29;100.00;62188.47;5047936;28;20467;-89
2023/10/05 04:15:09;;;;;;;9.20;2.35;;;;;;;-143.29;100.00;62188.47;5054867;28;20025;-89
2023/10/05 04:17:35;;;;;;;3.28;1.45;;;;;;;-143.29;100.00;62188.47;5061903;28;20043;-89
2023/10/05 04:20:00;;;;;;;6.30;1.15;;;;;;;-143.29;100.00;62188.47;5074704;28;20115;-89
2023/10/05 04:22:25;;;;;;;8.18;1.30;;;;;;;-143.29;100.00;62188.47;5075050;28;20267;-89
2023/10/05 04:24:51;;;;;;;11.77;1.85;;;;;;;-143.29;100.00;62188.47;5074817;28;20036;-89
2023/10/05 04:27:18;;;;;;;5.32;2.10;;;;;;;-143.29;100.00;62188.47;5073294;28;20074;-89
2023/10/05 04:29:44;;;;;;;4.50;1.20;;;;;;;-143.29;100.00;62188.47;5074704;28;20474;-89
2023/10/05 04:32:13;;;;;;;6.25;1.40;;;;;;;-143.29;100.00;62188.47;5074746;28;20035;-89
2023/10/05 04:34:38;;;;;;;4.15;1.40;;;;;;;-143.29;100.00;62188.47;5074613;28;20032;-89
2023/10/05 04:37:03;;;;;;;10.63;2.03;;;;;;;-143.29;100.00;62188.47;5073107;28;20032;-89
2023/10/05 04:39:29;;;;;;;6.13;1.48;;;;;;;-143.29;100.00;62188.47;5074618;28;20025;-90
2023/10/05 04:42:11;;;;;;;11.27;3.15;;;;;;;-143.29;100.00;62188.47;5074524;28;20023;-88
2023/10/05 04:44:38;;;;;;;7.55;1.60;;;;;;;-143.29;100.00;62188.47;5074494;28;20489;-89
2023/10/05 04:47:04;;;;;;;6.57;1.55;;;;;;;-143.29;100.00;62188.47;5073227;28;20031;-89
2023/10/05 04:49:30;;;;;;;11.52;2.17;;;;;;;-143.29;100.00;62188.47;5074462;28;20023;-90
2023/10/05 04:51:57;;;;;;;5.70;1.33;;;;;;;-143.29;100.00;62188.47;5074532;28;20021;-89
2023/10/05 04:54:25;;;;;;;5.47;1.48;;;;;;;-143.29;100.00;62188.47;5074333;28;20032;-90
2023/10/05 04:57:02;;;;;;;7.40;1.77;;;;;;;-143.29;100.00;62188.47;5072726;28;20031;-90
2023/10/05 04:59:47;;;;;;;7.35;1.80;;;;;;;-143.29;100.00;62188.47;5074363;28;20034;-89
2023/10/05 05:02:22;;;;;;;10.60;1.90;;;;;;;-143.29;100.00;62188.47;5074082;28;20089;-89
2023/10/05 05:07:17;;;;;;;4.97;1.58;;;;;;;-143.29;100.00;62188.47;5067905;28;20068;-89
2023/10/05 05:09:43;;;;;;;6.70;1.40;;;;;;;-143.29;100.00;62188.47;5054124;28;20040;-90
2023/10/05 05:12:16;;;;;;;6.72;1.42;;;;;;;-143.29;100.00;62188.47;5053980;28;20021;-89
2023/10/05 05:14:42;;;;;;;6.47;1.80;;;;;;;-143.29;100.00;62188.47;5053908;28;20036;-89
2023/10/05 05:17:11;;;;;;;6.97;1.67;;;;;;;-143.29;100.00;62188.47;5052180;28;20022;-89
2023/10/05 05:19:39;;;;;;;6.15;1.38;;;;;;;-143.29;100.00;62188.47;5033658;28;20061;-89
2023/10/05 05:22:05;;;;;;;6.72;1.67;;;;;;;-143.29;100.00;62188.47;5033846;28;20030;-89
2023/10/05 05:24:31;;;;;;;5.13;1.63;;;;;;;-143.29;100.00;62188.47;5033810;28;20034;-89
2023/10/05 05:29:41;;;;;;;10.43;1.90;;;;;;;-143.29;100.00;62188.47;5044189;28;20554;-89
2023/10/05 05:32:10;;;;;;;5.72;1.13;;;;;;;-143.29;100.00;62188.47;5053481;28;20108;-89
2023/10/05 05:34:41;;;;;;;9.88;1.88;;;;;;;-143.29;100.00;62188.47;5053488;28;20033;-89
2023/10/05 05:37:08;;;;;;;8.07;2.08;;;;;;;-143.29;100.00;62188.47;5035540;28;20032;-89
2023/10/05 05:39:39;;;;;;;7.45;1.50;;;;;;;-143.29;100.00;62188.47;5061282;28;20029;-89
2023/10/05 05:42:07;;;;;;;6.20;1.90;;;;;;;-143.29;100.00;62188.47;5048001;28;20079;-89
2023/10/05 05:44:34;;;;;;;6.82;1.33;;;;;;;-143.29;100.00;62188.47;5015723;28;20486;-89
2023/10/05 05:47:09;;;;;;;9.85;1.83;;;;;;;-143.29;100.00;62188.47;5033456;28;20360;-90
2023/10/05 05:49:38;;;;;;;12.40;1.88;;;;;;;-143.29;100.00;62188.47;5046295;28;20478;-88
2023/10/05 05:52:05;;;;;;;6.72;1.35;;;;;;;-143.29;100.00;62188.47;5052803;28;20025;-89
2023/10/05 05:54:31;;;;;;;8.35;1.50;;;;;;;-143.29;100.00;62188.47;5052789;28;20407;-89
2023/10/05 05:56:57;;;;;;;6.93;1.42;;;;;;;-143.29;100.00;62188.47;5052797;28;20106;-89
2023/10/05 05:59:23;;;;;;;7.60;1.73;;;;;;;-143.29;100.00;62188.47;5033230;28;20491;-88
2023/10/05 06:01:50;;;;;;;9.63;2.58;;;;;;;-143.29;100.00;62188.47;5052161;28;20022;-89
2023/10/05 06:04:16;;;;;;;9.10;1.92;;;;;;;-143.29;100.00;62188.47;5065650;28;20115;-88
2023/10/05 06:06:43;;;;;;;7.85;1.50;;;;;;;-143.29;100.00;62188.47;5072871;28;20502;-89
2023/10/05 06:09:10;;;;;;;5.88;1.63;;;;;;;-143.29;100.00;62188.47;5055986;28;20399;-88
2023/10/05 06:11:36;;;;;;;6.53;1.27;;;;;;;-143.29;100.00;62188.47;5052313;28;20483;-89
2023/10/05 06:14:03;;;;;;;7.32;1.52;;;;;;;-143.29;100.00;62188.47;5061687;28;20039;-89
2023/10/05 06:16:30;;;;;;;13.43;1.73;;;;;;;-143.29;100.00;62188.47;5052378;28;20028;-89
2023/10/05 06:18:55;;;;;;;4.55;1.20;;;;;;;-143.29;100.00;62188.47;5033506;28;20021;-89
2023/10/05 06:21:21;;;;;;;5.95;1.50;;;;;;;-143.29;100.00;62188.47;5052554;28;20021;-90
2023/10/05 06:23:46;;;;;;;7.00;1.35;;;;;;;-143.29;100.00;62188.47;5051697;28;20118;-90
2023/10/05 06:26:12;;;;;;;9.27;1.58;;;;;;;-143.29;100.00;62188.47;5033310;28;20449;-91
2023/10/05 06:28:37;;;;;;;8.15;2.00;;;;;;;-143.29;100.00;62188.47;5052621;28;20065;-90
2023/10/05 06:31:03;;;;;;;6.18;1.40;;;;;;;-143.29;100.00;62188.47;5065540;28;20024;-90
2023/10/05 06:33:28;;;;;;;12.00;1.85;;;;;;;-143.29;100.00;62188.47;5071660;28;20103;-91
2023/10/05 06:35:54;;;;;;;11.23;2.90;;;;;;;-143.29;100.00;62188.47;5053742;28;20025;-90
2023/10/05 06:38:20;;;;;;;7.47;1.27;;;;;;;-143.29;100.00;62188.47;5072267;28;20454;-89
2023/10/05 06:40:46;;;;;;;6.85;1.35;;;;;;;-143.29;100.00;62188.47;5070739;28;20036;-89
2023/10/05 06:43:11;;;;;;;10.35;2.45;;;;;;;-143.29;100.00;62188.47;5071070;28;20527;-90
2023/10/05 06:45:43;;;;;;;10.23;1.58;;;;;;;-143.29;100.00;62188.47;5072007;28;20028;-90
2023/10/05 06:48:08;;;;;;;8.93;1.77;;;;;;;-143.29;100.00;62188.47;5071352;28;20027;-89
2023/10/05 06:50:34;;;;;;;11.68;2.08;;;;;;;-143.29;100.00;62188.47;5070534;28;20032;-87
2023/10/05 06:53:00;;;;;;;8.30;1.55;;;;;;;-143.29;100.00;62188.47;5071913;28;20027;-90
2023/10/05 06:55:25;;;;;;;9.18;2.15;;;;;;;-143.29;100.00;62188.47;5071729;28;20032;-92
2023/10/05 06:57:51;;;;;;;8.85;1.52;;;;;;;-143.29;100.00;62188.47;5053836;28;20036;-89
2023/10/05 07:00:22;;;;;;;7.63;1.77;;;;;;;-143.29;100.00;62188.47;5070253;28;20061;-91
2023/10/05 07:02:50;;;;;;;5.97;1.45;;;;;;;-143.29;100.00;62188.47;5053265;28;20020;-89
2023/10/05 07:05:16;;;;;;;9.98;1.45;;;;;;;-143.29;100.00;62188.47;5071827;28;20029;-90
2023/10/05 07:07:42;;;;;;;6.22;1.50;;;;;;;-143.29;100.00;62188.47;5053773;28;20394;-89
2023/10/05 07:10:10;;;;;;;3.60;1.38;;;;;;;-143.29;100.00;62188.47;5069975;28;20025;-89
2023/10/05 07:12:41;;;;;;;7.80;1.52;;;;;;;-143.29;100.00;62188.47;5050371;28;20013;-91
2023/10/05 07:15:08;;;;;;;;;;;;;;;-143.29;100.00;62188.47;5052039;28;20028;-90
2023/10/05 07:17:33;;;;;;;9.60;2.08;;;;;;;-143.29;100.00;62188.47;5050753;28;20321;-90
2023/10/05 07:19:59;;;;;;;14.43;1.98;;;;;;;-143.29;100.00;62188.47;5055318;28;20090;-90
2023/10/05 07:22:24;;;;;;;8.85;1.70;;;;;;;-143.29;100.00;62188.47;5053424;28;20474;-90
2023/10/05 07:24:50;;;;;;;8.15;1.83;;;;;;;-143.29;100.00;62188.47;5071544;28;20043;-89
2023/10/05 07:27:17;;;;;;;6.13;1.52;;;;;;;-143.29;100.00;62188.47;5071442;28;20463;-89
2023/10/05 07:29:45;;;;;;;10.50;1.30;;;;;;;-143.29;100.00;62188.47;5067372;28;20028;-90
2023/10/05 07:32:14;;;;;;;9.15;1.85;;;;;;;-143.29;100.00;62188.47;5032702;28;20424;-89
2023/10/05 07:34:40;;;;;;;6.80;1.27;;;;;;;-143.29;100.00;62188.47;5066240;28;20060;-89
2023/10/05 07:37:10;;;;;;;15.07;1.80;;;;;;;-143.29;100.00;62188.47;5071492;28;20025;-89
2023/10/05 07:39:37;;;;;;;6.22;1.55;;;;;;;-143.29;100.00;62188.47;5071835;28;20017;-88
2023/10/05 07:42:02;;;;;;;12.48;1.80;;;;;;;-143.29;100.00;62188.47;5069966;28;20063;-88
2023/10/05 07:44:27;;;;;;;10.20;2.08;;;;;;;-143.29;100.00;62188.47;5071399;28;20123;-88
2023/10/05 07:46:53;;;;;;;5.43;1.63;;;;;;;-143.29;100.00;62188.47;5070561;28;20031;-88
2023/10/05 07:49:19;;;;;;;6.07;1.30;;;;;;;-143.29;100.00;62188.47;5073906;28;20025;-88
2023/10/05 07:51:44;;;;;;;8.43;1.20;;;;;;;-143.29;100.00;62188.47;5073643;28;20058;-88
2023/10/05 07:54:10;;;;;;;8.00;1.40;;;;;;;-143.29;100.00;62188.47;5075306;28;20035;-88
2023/10/05 07:56:35;;;;;;;13.10;1.75;;;;;;;-143.29;100.00;62188.47;5075366;28;20109;-88
2023/10/05 07:59:04;;;;;;;7.28;2.00;;;;;;;-143.29;100.00;62188.47;5075170;28;20035;-94
2023/10/05 08:01:29;;;;;;;8.38;2.40;;;;;;;-143.29;100.00;62188.47;5056594;28;20514;-88
2023/10/05 08:03:55;;;;;;;8.73;1.77;;;;;;;-143.29;100.00;62188.47;5053823;28;20021;-88
2023/10/05 08:06:20;;;;;;;11.32;1.83;;;;;;;-143.29;100.00;62188.47;5054872;28;20028;-88
2023/10/05 08:08:47;;;;;;;4.28;1.08;;;;;;;-143.29;100.00;62188.47;5054696;28;20024;-88
2023/10/05 08:11:13;;;;;;;7.05;1.67;;;;;;;-143.29;100.00;62188.47;5063112;28;20043;-89
2023/10/05 08:13:39;;;;;;;5.35;1.30;;;;;;;-143.29;100.00;62188.47;5073060;28;20032;-88
2023/10/05 08:16:08;;;;;;;5.50;1.38;;;;;;;-143.29;100.00;62188.47;5074569;28;20073;-88
2023/10/05 08:18:33;;;;;;;8.63;1.67;;;;;;;-143.29;100.00;62188.47;5073984;28;20025;-88
2023/10/05 08:20:59;;;;;;;9.80;2.53;;;;;;;-143.29;100.00;62188.47;5065805;28;20361;-89
2023/10/05 08:23:24;;;;;;;7.22;1.45;;;;;;;-143.29;100.00;62188.47;5054668;28;20036;-88
2023/10/05 08:25:50;;;;;;;8.43;2.10;;;;;;;-143.29;100.00;62188.47;5054756;28;20035;-89
2023/10/05 08:28:20;;;;;;;11.10;1.70;;;;;;;-143.29;100.00;62188.47;5054922;28;20386;-89
2023/10/05 08:30:57;;;;;;;7.38;1.80;;;;;;;-143.29;100.00;62188.47;5040762;28;20081;-89
2023/10/05 08:33:26;;;;;;;11.23;2.28;;;;;;;-143.29;100.00;62188.47;5055497;28;20557;-89
2023/10/05 08:35:51;;;;;;;7.50;1.45;;;;;;;-143.29;100.00;62188.47;5074482;28;20071;-89
2023/10/05 08:38:17;;;;;;;7.28;1.90;;;;;;;-143.29;100.00;62188.47;5074343;28;20458;-89
2023/10/05 08:40:45;;;;;;;7.80;1.63;;;;;;;-143.29;100.00;62188.47;5068823;28;20033;-90
2023/10/05 08:43:10;;;;;;;10.75;1.88;;;;;;;-143.29;100.00;62188.47;5036557;28;20130;-92
2023/10/05 08:45:46;;;;;;;6.63;1.55;;;;;;;-143.29;100.00;62188.47;5054362;28;20091;-88
2023/10/05 08:48:19;;;;;;;8.77;1.27;;;;;;;-143.29;100.00;62188.47;5035647;28;20025;-88
2023/10/05 08:50:49;;;;;;;6.40;1.67;;;;;;;-143.29;100.00;62188.47;5057762;28;20486;-89
2023/10/05 08:53:14;;;;;;;8.57;1.60;;;;;;;-143.29;100.00;62188.47;5074095;28;20056;-87
2023/10/05 08:55:45;;;;;;;9.15;1.48;;;;;;;-143.29;100.00;62188.47;5069248;28;20067;-88
2023/10/05 08:58:18;;;;;;;6.75;1.40;;;;;;;-143.29;100.00;62188.47;5056608;28;20040;-89
2023/10/05 09:00:44;;;;;;;6.15;1.30;;;;;;;-143.29;100.00;62188.47;5045768;28;20039;-88
2023/10/05 09:03:28;;;;;;;10.35;1.42;;;;;;;-143.29;100.00;62188.47;5053237;28;20032;-89
2023/10/05 09:06:19;;;;;;;6.43;1.52;;;;;;;-143.29;100.00;62188.47;5050893;28;20487;-89
2023/10/05 09:08:53;;;;;;;8.18;1.42;;;;;;;-143.29;100.00;62188.47;5033852;28;20108;-89
2023/10/05 09:11:32;;;;;;;7.38;2.05;;;;;;;-143.29;100.00;62188.47;5052032;28;20060;-89
2023/10/05 09:14:19;;;;;;;6.53;1.50;;;;;;;-143.29;100.00;62188.47;5033773;28;20108;-91
2023/10/05 09:16:55;;;;;;;5.88;1.60;;;;;;;-143.29;100.00;62188.47;5029002;28;20029;-93
2023/10/05 09:19:26;;;;;;;8.55;1.80;;;;;;;-143.29;100.00;62188.47;5033655;28;20509;-93
2023/10/05 09:24:24;;;;;;;6.53;1.30;;;;;;;-143.29;100.00;62188.47;5053659;28;20270;-90
2023/10/05 09:26:55;;;;;;;4.72;1.48;;;;;;;-143.29;100.00;62188.47;5070456;28;20513;-89
2023/10/05 09:29:28;;;;;;;5.77;1.33;;;;;;;-143.29;100.00;62188.47;5055338;28;20025;-92
2023/10/05 09:31:54;;;;;;;12.40;1.88;;;;;;;-143.29;100.00;62188.47;5072627;28;20111;-90
2023/10/05 09:34:40;;;;;;;4.97;1.10;;;;;;;-143.29;100.00;62188.47;5073276;28;20474;-90
2023/10/05 09:37:07;;;;;;;6.18;2.00;;;;;;;-143.29;100.00;62188.47;5053985;28;20397;-91
2023/10/05 09:39:44;;;;;;;3.95;1.13;;;;;;;-143.29;100.00;62188.47;5071277;28;20017;-91
2023/10/05 09:42:17;;;;;;;8.57;1.95;;;;;;;-143.29;100.00;62188.47;5054980;28;20031;-91
2023/10/05 09:44:53;;;;;;;8.85;2.58;;;;;;;-143.29;100.00;62188.47;5071174;28;20021;-91
2023/10/05 09:47:27;;;;;;;7.70;1.67;;;;;;;-143.29;100.00;62188.47;5067076;28;20028;-90
2023/10/05 09:50:00;;;;;;;7.47;1.27;;;;;;;-143.29;100.00;62188.47;5072935;28;20032;-90
2023/10/05 09:52:34;;;;;;;5.35;1.40;;;;;;;-143.29;100.00;62188.47;5070827;28;20021;-89
2023/10/05 09:55:01;;;;;;;4.63;1.90;;;;;;;-143.29;100.00;62188.47;5042759;28;20125;-90
2023/10/05 09:57:27;;;;;;;12.15;2.00;;;;;;;-143.29;100.00;62188.47;5072050;28;20036;-89
2023/10/05 09:59:59;;;;;;;6.07;2.05;;;;;;;-143.29;100.00;62188.47;5072795;28;20025;-90
2023/10/05 10:02:32;;;;;;;6.85;1.17;;;;;;;-143.29;100.00;62188.47;5051683;28;20119;-90
2023/10/05 10:05:05;;;;;;;8.23;1.23;;;;;;;-143.29;100.00;62188.47;5072618;28;20037;-86
2023/10/05 10:07:33;;;;;;;5.85;1.85;;;;;;;-143.29;100.00;62188.47;5072838;28;20497;-90
2023/10/05 10:10:00;;;;;;;6.78;1.15;;;;;;;-143.29;100.00;62188.47;5048269;28;20051;-93
2023/10/05 10:12:38;;;;;;;3.28;1.02;;;;;;;-143.29;100.00;62188.47;5047593;28;20402;-90
2023/10/05 10:15:24;;;;;;;9.35;2.00;;;;;;;-143.29;100.00;62188.47;5072491;28;20498;-89
2023/10/05 10:18:03;;;;;;;6.90;1.60;;;;;;;-143.29;100.00;62188.47;5062191;28;20390;-91
2023/10/05 10:20:35;;;;;;;8.40;1.30;;;;;;;-143.29;100.00;62188.47;5034821;28;20033;-92
2023/10/05 10:23:08;;;;;;;7.65;1.42;;;;;;;-143.29;100.00;62188.47;5033622;28;20484;-93
2023/10/05 10:25:38;;;;;;;5.63;1.42;;;;;;;-143.29;100.00;62188.47;5054164;28;20484;-94
2023/10/05 10:31:16;;;;;;;3.90;0.90;;;;;;;-143.29;100.00;62188.47;5071687;28;20031;-92
2023/10/05 10:33:43;;;;;;;5.63;1.10;;;;;;;-143.29;100.00;62188.47;5072379;28;20078;-91
2023/10/05 10:36:18;;;;;;;7.78;2.22;;;;;;;-143.29;100.00;62188.47;5056729;28;20486;-91
2023/10/05 10:38:51;;;;;;;7.32;1.10;;;;;;;-143.29;100.00;62188.47;5064349;28;20039;-95
2023/10/05 10:41:20;;;;;;;8.38;1.60;;;;;;;-143.29;100.00;62188.47;5054341;28;20103;-91
2023/10/05 10:43:50;;;;;;;6.75;1.10;;;;;;;-143.29;100.00;62188.47;5054386;28;20055;-92
2023/10/05 10:46:33;;;;;;;5.47;1.10;;;;;;;-143.29;100.00;62188.47;5034767;28;20459;-91
2023/10/05 10:48:59;;;;;;;8.15;1.30;;;;;;;-143.29;100.00;62188.47;5035827;28;20033;-92
2023/10/05 10:51:38;;;;;;;3.53;1.10;;;;;;;-143.29;100.00;62188.47;5051821;28;20021;-92
2023/10/05 10:54:14;;;;;;;6.22;0.90;;;;;;;-143.29;100.00;62188.47;5052128;28;20470;-92
2023/10/05 10:56:43;;;;;;;4.95;1.33;;;;;;;-143.29;100.00;62188.47;5033870;28;20368;-91
2023/10/05 10:59:13;;;;;;;6.25;1.35;;;;;;;-143.29;100.00;62188.47;5054168;28;20025;-92
2023/10/05 11:01:44;;;;;;;4.90;1.40;;;;;;;-143.29;100.00;62188.47;5033876;28;20442;-92
2023/10/05 11:04:26;;;;;;;7.35;1.85;;;;;;;-143.29;100.00;62188.47;5051954;28;20094;-92
2023/10/05 11:07:01;;;;;;;4.72;1.60;;;;;;;-143.29;100.00;62188.47;5033643;28;20433;-91
2023/10/05 11:09:31;;;;;;;4.60;0.93;;;;;;;-143.29;100.00;62188.47;5061428;28;20028;-91
2023/10/05 11:12:08;;;;;;;4.47;1.25;;;;;;;-143.29;100.00;62188.47;5043607;28;20021;-92
2023/10/05 11:14:35;;;;;;;5.90;1.65;;;;;;;-143.29;100.00;62188.47;5051344;28;20039;-92
2023/10/05 11:17:00;;;;;;;6.13;1.02;;;;;;;-143.29;100.00;62188.47;5050319;28;20031;-91
2023/10/05 11:19:36;;;;;;;9.10;1.25;;;;;;;-143.29;100.00;62188.47;5052171;28;20028;-90
2023/10/05 11:22:07;;;;;;;4.45;1.35;;;;;;;-143.29;100.00;62188.47;5031944;28;20429;-91
2023/10/05 11:24:39;;;;;;;6.32;1.58;;;;;;;-143.29;100.00;62188.47;5031838;28;20025;-91
2023/10/05 11:27:14;;;;;;;7.78;1.90;;;;;;;-143.29;100.00;62188.47;5044825;28;20029;-91
2023/10/05 11:29:43;;;;;;;4.68;1.55;;;;;;;-143.29;100.00;62188.47;5065771;28;20037;-91
2023/10/05 11:32:19;;;;;;;14.27;3.92;;;;;;;-143.29;100.00;62188.47;5033776;28;20027;-90
2023/10/05 11:34:46;;;;;;;6.88;1.50;;;;;;;-143.29;100.00;62188.47;5055712;28;20029;-91
2023/10/05 11:37:17;;;;;;;6.32;1.92;;;;;;;-143.29;100.00;62188.47;5071509;28;20029;-91
2023/10/05 11:39:49;;;;;;;7.47;1.50;;;;;;;-143.29;100.00;62188.47;5054166;28;20059;-90
2023/10/05 11:42:16;;;;;;;5.60;1.48;;;;;;;-143.29;100.00;62188.47;5051662;28;20029;-89
2023/10/05 11:44:44;;;;;;;6.45;1.33;;;;;;;-143.29;100.00;62188.47;5057096;28;20185;-90
2023/10/05 11:47:23;;;;;;;9.07;1.83;;;;;;;-143.29;100.00;62188.47;5053803;28;20051;-90
2023/10/05 11:49:49;;;;;;;5.40;1.42;;;;;;;-143.29;100.00;62188.47;5036768;28;20493;-90
2023/10/05 11:52:17;;;;;;;8.57;1.80;;;;;;;-143.29;100.00;62188.47;5050671;28;20080;-89